createdAt,value
2017-04-21T00:00:46.913Z,1024.26
2017-04-21T00:01:59.437Z,1024.24
2017-04-21T00:03:11.968Z,1024.22
2017-04-21T00:04:24.510Z,1024.19
2017-04-21T00:05:37.031Z,1024.2
2017-04-21T00:06:49.552Z,1024.15
2017-04-21T00:08:02.074Z,1024.12
2017-04-21T00:09:14.597Z,1024.17
2017-04-21T00:10:27.109Z,1024.14
2017-04-21T00:11:39.684Z,1024.1
2017-04-21T00:12:52.556Z,1024.09
2017-04-21T00:14:05.147Z,1024.09
2017-04-21T00:15:17.697Z,1024.06
2017-04-21T00:16:30.213Z,1024.05
2017-04-21T00:17:42.714Z,1024.05
2017-04-21T00:18:55.264Z,1023.96
2017-04-21T00:20:07.812Z,1023.94
2017-04-21T00:21:20.318Z,1023.93
2017-04-21T00:22:32.814Z,1023.93
2017-04-21T00:23:45.044Z,1023.93
2017-04-21T00:24:57.573Z,1023.85
2017-04-21T00:26:10.091Z,1023.91
2017-04-21T00:27:22.649Z,1023.86
2017-04-21T00:28:35.180Z,1023.85
2017-04-21T00:29:47.723Z,1023.86
2017-04-21T00:31:00.648Z,1023.83
2017-04-21T00:32:13.189Z,1023.83
2017-04-21T00:33:25.753Z,1023.84
2017-04-21T00:34:38.303Z,1023.79
2017-04-21T00:35:50.827Z,1023.8
2017-04-21T00:37:03.374Z,1023.82
2017-04-21T00:38:15.900Z,1023.76
2017-04-21T00:39:28.439Z,1023.79
2017-04-21T00:40:40.632Z,1023.77
2017-04-21T00:41:53.177Z,1023.73
2017-04-21T00:43:05.704Z,1023.71
2017-04-21T00:44:18.200Z,1023.7
2017-04-21T00:45:30.737Z,1023.68
2017-04-21T00:46:43.259Z,1023.69
2017-04-21T00:47:55.478Z,1023.68
2017-04-21T00:49:07.974Z,1023.67
2017-04-21T00:50:20.199Z,1023.67
2017-04-21T00:51:32.724Z,1023.69
2017-04-21T00:52:45.345Z,1023.65
2017-04-21T00:53:57.562Z,1023.62
2017-04-21T00:55:09.816Z,1023.64
2017-04-21T00:56:22.352Z,1023.64
2017-04-21T00:57:34.858Z,1023.54
2017-04-21T00:58:47.392Z,1023.58
2017-04-21T00:59:59.924Z,1023.57
2017-04-21T01:01:12.469Z,1023.56
2017-04-21T01:02:24.979Z,1023.55
2017-04-21T01:03:37.510Z,1023.53
2017-04-21T01:04:50.057Z,1023.54
2017-04-21T01:06:02.578Z,1023.55
2017-04-21T01:07:14.799Z,1023.52
2017-04-21T01:08:27.588Z,1023.52
2017-04-21T01:09:40.105Z,1023.53
2017-04-21T01:10:52.879Z,1023.51
2017-04-21T01:12:05.380Z,1023.48
2017-04-21T01:13:17.875Z,1023.46
2017-04-21T01:14:30.414Z,1023.42
2017-04-21T01:15:42.924Z,1023.4
2017-04-21T01:16:55.455Z,1023.4
2017-04-21T01:18:07.956Z,1023.33
2017-04-21T01:19:20.497Z,1023.36
2017-04-21T01:20:33.028Z,1023.34
2017-04-21T01:21:45.546Z,1023.34
2017-04-21T01:22:58.047Z,1023.31
2017-04-21T01:24:10.569Z,1023.33
2017-04-21T01:25:23.415Z,1023.32
2017-04-21T01:26:35.949Z,1023.32
2017-04-21T01:27:48.629Z,1023.25
2017-04-21T01:29:01.191Z,1023.24
2017-04-21T01:30:13.938Z,1023.22
2017-04-21T01:31:26.482Z,1023.22
2017-04-21T01:32:39.015Z,1023.18
2017-04-21T01:33:51.556Z,1023.16
2017-04-21T01:35:04.073Z,1023.16
2017-04-21T01:36:16.601Z,1023.11
2017-04-21T01:37:29.115Z,1023.16
2017-04-21T01:38:41.319Z,1023.15
2017-04-21T01:39:53.861Z,1023.16
2017-04-21T01:41:06.381Z,1023.13
2017-04-21T01:42:18.624Z,1023.1
2017-04-21T01:43:31.151Z,1023.15
2017-04-21T01:44:43.369Z,1023.13
2017-04-21T01:45:56.086Z,1023.16
2017-04-21T01:47:08.035Z,1023.12
2017-04-21T01:48:19.984Z,1023.12
2017-04-21T01:49:32.527Z,1023.11
2017-04-21T01:50:44.741Z,1023.09
2017-04-21T01:51:57.262Z,1023.1
2017-04-21T01:53:09.768Z,1023.05
2017-04-21T01:54:21.983Z,1023.01
2017-04-21T01:55:34.489Z,1023.05
2017-04-21T01:56:46.728Z,1023.06
2017-04-21T01:57:59.254Z,1023.04
2017-04-21T01:59:11.770Z,1023.04
2017-04-21T02:00:24.321Z,1023
2017-04-21T02:01:36.840Z,1022.98
2017-04-21T02:02:49.387Z,1022.96
2017-04-21T02:04:01.808Z,1022.95
2017-04-21T02:05:14.323Z,1022.89
2017-04-21T02:06:26.851Z,1022.93
2017-04-21T02:07:39.391Z,1022.86
2017-04-21T02:08:51.645Z,1022.84
2017-04-21T02:10:04.187Z,1022.89
2017-04-21T02:11:16.726Z,1022.86
2017-04-21T02:12:29.254Z,1022.86
2017-04-21T02:13:41.464Z,1022.84
2017-04-21T02:14:53.996Z,1022.82
2017-04-21T02:16:06.555Z,1022.82
2017-04-21T02:17:19.088Z,1022.8
2017-04-21T02:18:31.287Z,1022.78
2017-04-21T02:19:43.818Z,1022.79
2017-04-21T02:20:56.347Z,1022.79
2017-04-21T02:22:08.895Z,1022.77
2017-04-21T02:23:21.481Z,1022.76
2017-04-21T02:24:33.784Z,1022.72
2017-04-21T02:25:46.308Z,1022.7
2017-04-21T02:26:58.851Z,1022.7
2017-04-21T02:28:11.376Z,1022.69
2017-04-21T02:29:23.939Z,1022.69
2017-04-21T02:30:36.488Z,1022.68
2017-04-21T02:31:48.705Z,1022.67
2017-04-21T02:33:01.227Z,1022.7
2017-04-21T02:34:13.733Z,1022.67
2017-04-21T02:35:26.501Z,1022.63
2017-04-21T02:36:39.039Z,1022.62
2017-04-21T02:37:51.258Z,1022.65
2017-04-21T02:39:03.767Z,1022.64
2017-04-21T02:40:15.988Z,1022.61
2017-04-21T02:41:28.502Z,1022.58
2017-04-21T02:42:41.123Z,1022.58
2017-04-21T02:43:53.694Z,1022.6
2017-04-21T02:45:05.890Z,1022.58
2017-04-21T02:46:18.390Z,1022.53
2017-04-21T02:47:30.936Z,1022.51
2017-04-21T02:48:43.452Z,1022.5
2017-04-21T02:49:55.976Z,1022.5
2017-04-21T02:51:08.527Z,1022.45
2017-04-21T02:52:20.468Z,1022.46
2017-04-21T02:53:32.993Z,1022.46
2017-04-21T02:54:45.237Z,1022.42
2017-04-21T02:55:57.456Z,1022.41
2017-04-21T02:57:10.261Z,1022.33
2017-04-21T02:58:22.801Z,1022.32
2017-04-21T02:59:35.297Z,1022.31
2017-04-21T03:00:47.536Z,1022.29
2017-04-21T03:01:59.732Z,1022.31
2017-04-21T03:03:12.561Z,1022.27
2017-04-21T03:04:24.795Z,1022.29
2017-04-21T03:05:37.020Z,1022.26
2017-04-21T03:06:49.562Z,1022.26
2017-04-21T03:08:02.130Z,1022.24
2017-04-21T03:09:14.659Z,1022.24
2017-04-21T03:10:27.208Z,1022.19
2017-04-21T03:11:39.749Z,1022.18
2017-04-21T03:12:51.989Z,1022.18
2017-04-21T03:14:04.514Z,1022.2
2017-04-21T03:15:17.041Z,1022.16
2017-04-21T03:16:29.602Z,1022.13
2017-04-21T03:17:42.129Z,1022.18
2017-04-21T03:18:54.350Z,1022.14
2017-04-21T03:20:06.630Z,1022.14
2017-04-21T03:21:19.238Z,1022.14
2017-04-21T03:22:32.092Z,1022.1
2017-04-21T03:23:44.643Z,1022.08
2017-04-21T03:24:56.857Z,1022.11
2017-04-21T03:26:09.393Z,1022.05
2017-04-21T03:27:21.917Z,1022.04
2017-04-21T03:28:33.843Z,1022.02
2017-04-21T03:29:46.357Z,1022.02
2017-04-21T03:30:58.884Z,1021.98
2017-04-21T03:32:11.103Z,1021.92
2017-04-21T03:33:23.629Z,1021.93
2017-04-21T03:34:36.173Z,1021.9
2017-04-21T03:35:48.397Z,1021.9
2017-04-21T03:37:00.922Z,1021.87
2017-04-21T03:38:13.441Z,1021.84
2017-04-21T03:39:26.037Z,1021.91
2017-04-21T03:40:38.848Z,1021.89
2017-04-21T03:41:51.372Z,1021.88
2017-04-21T03:43:03.593Z,1021.82
2017-04-21T03:44:15.797Z,1021.88
2017-04-21T03:45:28.302Z,1021.86
2017-04-21T03:46:40.835Z,1021.81
2017-04-21T03:47:53.359Z,1021.85
2017-04-21T03:49:05.895Z,1021.8
2017-04-21T03:50:18.436Z,1021.85
2017-04-21T03:51:30.940Z,1021.84
2017-04-21T03:52:43.440Z,1021.8
2017-04-21T03:53:55.987Z,1021.8
2017-04-21T03:55:08.499Z,1021.84
2017-04-21T03:56:20.727Z,1021.82
2017-04-21T03:57:33.316Z,1021.78
2017-04-21T03:58:45.536Z,1021.79
2017-04-21T03:59:58.066Z,1021.77
2017-04-21T04:01:10.635Z,1021.75
2017-04-21T04:02:23.455Z,1021.81
2017-04-21T04:03:35.995Z,1021.72
2017-04-21T04:04:48.522Z,1021.76
2017-04-21T04:06:01.048Z,1021.78
2017-04-21T04:07:13.579Z,1021.78
2017-04-21T04:08:26.386Z,1021.78
2017-04-21T04:09:38.929Z,1021.75
2017-04-21T04:10:51.449Z,1021.73
2017-04-21T04:12:03.945Z,1021.74
2017-04-21T04:13:16.158Z,1021.74
2017-04-21T04:14:28.655Z,1021.68
2017-04-21T04:15:41.189Z,1021.69
2017-04-21T04:16:53.825Z,1021.66
2017-04-21T04:18:06.369Z,1021.69
2017-04-21T04:19:18.870Z,1021.64
2017-04-21T04:20:31.059Z,1021.67
2017-04-21T04:21:43.581Z,1021.68
2017-04-21T04:22:56.088Z,1021.68
2017-04-21T04:24:08.576Z,1021.64
2017-04-21T04:25:21.101Z,1021.67
2017-04-21T04:26:33.617Z,1021.62
2017-04-21T04:27:46.163Z,1021.59
2017-04-21T04:28:58.687Z,1021.57
2017-04-21T04:30:11.530Z,1021.55
2017-04-21T04:31:24.034Z,1021.53
2017-04-21T04:32:36.560Z,1021.54
2017-04-21T04:33:49.469Z,1021.52
2017-04-21T04:35:02.023Z,1021.54
2017-04-21T04:36:14.564Z,1021.58
2017-04-21T04:37:27.077Z,1021.57
2017-04-21T04:38:39.606Z,1021.55
2017-04-21T04:39:52.123Z,1021.53
2017-04-21T04:41:04.620Z,1021.53
2017-04-21T04:42:16.816Z,1021.5
2017-04-21T04:43:29.041Z,1021.53
2017-04-21T04:44:41.585Z,1021.57
2017-04-21T04:45:53.811Z,1021.54
2017-04-21T04:47:06.347Z,1021.52
2017-04-21T04:48:18.576Z,1021.5
2017-04-21T04:49:31.123Z,1021.52
2017-04-21T04:50:43.983Z,1021.56
2017-04-21T04:51:56.652Z,1021.5
2017-04-21T04:53:08.875Z,1021.52
2017-04-21T04:54:21.370Z,1021.53
2017-04-21T04:55:33.890Z,1021.56
2017-04-21T04:56:46.123Z,1021.53
2017-04-21T04:57:58.669Z,1021.54
2017-04-21T04:59:11.187Z,1021.54
2017-04-21T05:00:23.678Z,1021.55
2017-04-21T05:01:36.206Z,1021.56
2017-04-21T05:02:48.474Z,1021.56
2017-04-21T05:04:01.015Z,1021.51
2017-04-21T05:05:13.245Z,1021.52
2017-04-21T05:06:25.483Z,1021.58
2017-04-21T05:07:38.299Z,1021.53
2017-04-21T05:08:50.507Z,1021.56
2017-04-21T05:10:03.049Z,1021.56
2017-04-21T05:11:15.716Z,1021.55
2017-04-21T05:12:28.269Z,1021.58
2017-04-21T05:13:40.791Z,1021.52
2017-04-21T05:14:53.338Z,1021.53
2017-04-21T05:16:05.856Z,1021.57
2017-04-21T05:17:18.078Z,1021.56
2017-04-21T05:18:30.620Z,1021.55
2017-04-21T05:19:43.146Z,1021.52
2017-04-21T05:20:55.683Z,1021.47
2017-04-21T05:22:08.192Z,1021.55
2017-04-21T05:23:20.734Z,1021.51
2017-04-21T05:24:33.280Z,1021.54
2017-04-21T05:25:45.851Z,1021.55
2017-04-21T05:26:58.370Z,1021.55
2017-04-21T05:28:10.917Z,1021.51
2017-04-21T05:29:23.838Z,1021.46
2017-04-21T05:30:36.384Z,1021.43
2017-04-21T05:31:48.918Z,1021.47
2017-04-21T05:33:01.422Z,1021.43
2017-04-21T05:34:13.920Z,1021.44
2017-04-21T05:35:26.184Z,1021.46
2017-04-21T05:36:38.709Z,1021.43
2017-04-21T05:37:51.232Z,1021.38
2017-04-21T05:39:03.776Z,1021.4
2017-04-21T05:40:16.250Z,1021.45
2017-04-21T05:41:28.796Z,1021.45
2017-04-21T05:42:41.013Z,1021.42
2017-04-21T05:43:53.703Z,1021.43
2017-04-21T05:45:05.905Z,1021.45
2017-04-21T05:46:18.544Z,1021.43
2017-04-21T05:47:31.072Z,1021.45
2017-04-21T05:48:43.585Z,1021.43
2017-04-21T05:49:56.115Z,1021.44
2017-04-21T05:51:08.627Z,1021.47
2017-04-21T05:52:21.161Z,1021.46
2017-04-21T05:53:33.405Z,1021.43
2017-04-21T05:54:45.926Z,1021.41
2017-04-21T05:55:58.190Z,1021.45
2017-04-21T05:57:10.711Z,1021.42
2017-04-21T05:58:23.263Z,1021.43
2017-04-21T05:59:35.798Z,1021.45
2017-04-21T06:00:47.997Z,1021.46
2017-04-21T06:01:59.922Z,1021.39
2017-04-21T06:03:12.298Z,1021.42
2017-04-21T06:04:24.969Z,1021.42
2017-04-21T06:05:37.690Z,1021.39
2017-04-21T06:06:50.212Z,1021.39
2017-04-21T06:08:02.728Z,1021.43
2017-04-21T06:09:15.227Z,1021.38
2017-04-21T06:10:27.748Z,1021.38
2017-04-21T06:11:40.266Z,1021.38
2017-04-21T06:12:52.789Z,1021.39
2017-04-21T06:14:05.333Z,1021.31
2017-04-21T06:15:17.832Z,1021.32
2017-04-21T06:16:30.349Z,1021.33
2017-04-21T06:17:42.874Z,1021.35
2017-04-21T06:18:55.418Z,1021.3
2017-04-21T06:20:07.939Z,1021.33
2017-04-21T06:21:20.475Z,1021.26
2017-04-21T06:22:32.430Z,1021.28
2017-04-21T06:23:45.233Z,1021.32
2017-04-21T06:24:57.762Z,1021.3
2017-04-21T06:26:10.313Z,1021.25
2017-04-21T06:27:22.566Z,1021.19
2017-04-21T06:28:35.088Z,1021.14
2017-04-21T06:29:47.633Z,1021.12
2017-04-21T06:31:00.178Z,1021.14
2017-04-21T06:32:12.696Z,1021.07
2017-04-21T06:33:24.945Z,1021.1
2017-04-21T06:34:37.491Z,1021
2017-04-21T06:35:49.712Z,1021.04
2017-04-21T06:37:02.254Z,1021.02
2017-04-21T06:38:14.475Z,1021.02
2017-04-21T06:39:26.724Z,1021.03
2017-04-21T06:40:39.271Z,1021
2017-04-21T06:41:51.782Z,1021.04
2017-04-21T06:43:04.288Z,1021.11
2017-04-21T06:44:16.805Z,1021.19
2017-04-21T06:45:29.005Z,1021.13
2017-04-21T06:46:41.521Z,1021.11
2017-04-21T06:47:54.063Z,1021.03
2017-04-21T06:49:06.592Z,1021.01
2017-04-21T06:50:19.127Z,1021.04
2017-04-21T06:51:31.636Z,1021.04
2017-04-21T06:52:44.154Z,1020.99
2017-04-21T06:53:56.653Z,1020.95
2017-04-21T06:55:08.871Z,1020.98
2017-04-21T06:56:21.368Z,1021
2017-04-21T06:57:33.935Z,1020.95
2017-04-21T06:58:46.456Z,1020.92
2017-04-21T06:59:59.003Z,1020.93
2017-04-21T07:01:11.570Z,1021.01
2017-04-21T07:02:24.114Z,1020.98
2017-04-21T07:03:36.643Z,1020.95
2017-04-21T07:04:48.890Z,1020.98
2017-04-21T07:06:01.435Z,1020.97
2017-04-21T07:07:13.983Z,1020.96
2017-04-21T07:08:26.551Z,1020.91
2017-04-21T07:09:39.069Z,1020.89
2017-04-21T07:10:51.618Z,1020.91
2017-04-21T07:12:03.877Z,1020.96
2017-04-21T07:13:16.411Z,1020.99
2017-04-21T07:14:28.959Z,1020.96
2017-04-21T07:15:41.503Z,1020.93
2017-04-21T07:16:54.065Z,1020.96
2017-04-21T07:18:06.643Z,1020.87
2017-04-21T07:19:19.211Z,1020.97
2017-04-21T07:20:31.735Z,1020.95
2017-04-21T07:21:44.281Z,1020.95
2017-04-21T07:22:56.521Z,1020.9
2017-04-21T07:24:09.047Z,1020.95
2017-04-21T07:25:21.594Z,1020.95
2017-04-21T07:26:34.136Z,1020.89
2017-04-21T07:27:46.682Z,1020.95
2017-04-21T07:28:59.210Z,1020.9
2017-04-21T07:30:11.749Z,1020.87
2017-04-21T07:31:24.301Z,1020.86
2017-04-21T07:32:36.522Z,1020.9
2017-04-21T07:33:49.062Z,1020.87
2017-04-21T07:35:01.631Z,1020.83
2017-04-21T07:36:14.007Z,1020.82
2017-04-21T07:37:26.574Z,1020.82
2017-04-21T07:38:44.305Z,1020.84
2017-04-21T07:39:57.587Z,1020.84
2017-04-21T07:41:09.857Z,1020.83
2017-04-21T07:42:22.083Z,1020.76
2017-04-21T07:43:34.612Z,1020.76
2017-04-21T07:44:47.154Z,1020.78
2017-04-21T07:46:00.016Z,1020.78
2017-04-21T07:47:12.565Z,1020.79
2017-04-21T07:48:24.864Z,1020.84
2017-04-21T07:49:37.389Z,1020.76
2017-04-21T07:50:49.923Z,1020.74
2017-04-21T07:52:02.159Z,1020.7
2017-04-21T07:53:14.392Z,1020.79
2017-04-21T07:54:26.960Z,1020.72
2017-04-21T07:55:39.487Z,1020.78
2017-04-21T07:56:51.988Z,1020.69
2017-04-21T07:58:04.208Z,1020.72
2017-04-21T07:59:16.452Z,1020.68
2017-04-21T08:00:28.667Z,1020.68
2017-04-21T08:03:00.419Z,1020.69
2017-04-21T08:04:12.658Z,1020.66
2017-04-21T08:05:24.909Z,1020.65
2017-04-21T08:06:37.418Z,1020.6
2017-04-21T08:07:49.449Z,1020.61
2017-04-21T08:10:13.641Z,1020.58
2017-04-21T08:11:25.884Z,1020.52
2017-04-21T08:12:38.102Z,1020.61
2017-04-21T08:13:50.626Z,1020.61
2017-04-21T08:15:03.181Z,1020.63
2017-04-21T08:16:15.721Z,1020.59
2017-04-21T08:17:27.918Z,1020.6
2017-04-21T08:18:40.160Z,1020.59
2017-04-21T08:19:52.660Z,1020.59
2017-04-21T08:21:04.855Z,1020.64
2017-04-21T08:22:17.375Z,1020.62
2017-04-21T08:23:29.898Z,1020.57
2017-04-21T08:24:42.414Z,1020.59
2017-04-21T08:25:54.935Z,1020.56
2017-04-21T08:27:07.549Z,1020.57
2017-04-21T08:28:20.077Z,1020.54
2017-04-21T08:29:32.669Z,1020.56
2017-04-21T08:30:45.201Z,1020.57
2017-04-21T08:31:57.690Z,1020.48
2017-04-21T08:33:10.214Z,1020.51
2017-04-21T08:34:22.748Z,1020.44
2017-04-21T08:35:35.278Z,1020.58
2017-04-21T08:36:47.816Z,1020.52
2017-04-21T08:38:00.044Z,1020.54
2017-04-21T08:39:12.270Z,1020.49
2017-04-21T08:40:24.515Z,1020.57
2017-04-21T08:41:36.712Z,1020.55
2017-04-21T08:42:49.270Z,1020.56
2017-04-21T08:44:01.798Z,1020.48
2017-04-21T08:45:14.298Z,1020.37
2017-04-21T08:46:26.783Z,1020.39
2017-04-21T08:47:39.565Z,1020.52
2017-04-21T08:48:52.312Z,1020.39
2017-04-21T08:50:04.862Z,1020.43
2017-04-21T08:51:47.274Z,1020.43
2017-04-21T08:52:59.826Z,1020.42
2017-04-21T08:54:12.075Z,1020.46
2017-04-21T08:55:24.018Z,1020.55
2017-04-21T08:56:36.574Z,1020.49
2017-04-21T08:57:49.073Z,1020.47
2017-04-21T08:59:01.315Z,1020.47
2017-04-21T09:00:14.069Z,1020.46
2017-04-21T09:01:26.341Z,1020.47
2017-04-21T09:02:38.878Z,1020.5
2017-04-21T09:03:51.106Z,1020.52
2017-04-21T09:05:03.628Z,1020.47
2017-04-21T09:06:15.874Z,1020.45
2017-04-21T09:07:28.420Z,1020.47
2017-04-21T09:08:40.661Z,1020.51
2017-04-21T09:09:53.229Z,1020.46
2017-04-21T09:11:05.462Z,1020.46
2017-04-21T09:12:18.045Z,1020.39
2017-04-21T09:13:30.276Z,1020.43
2017-04-21T09:14:42.495Z,1020.41
2017-04-21T09:15:54.740Z,1020.36
2017-04-21T09:17:06.709Z,1020.44
2017-04-21T09:18:18.975Z,1020.4
2017-04-21T09:19:31.579Z,1020.4
2017-04-21T09:20:43.823Z,1020.41
2017-04-21T09:21:56.198Z,1020.4
2017-04-21T09:23:08.819Z,1020.41
2017-04-21T09:24:21.040Z,1020.37
2017-04-21T09:25:33.283Z,1020.45
2017-04-21T09:26:45.812Z,1020.36
2017-04-21T09:27:58.324Z,1020.33
2017-04-21T09:29:10.604Z,1020.4
2017-04-21T09:30:23.121Z,1020.23
2017-04-21T09:32:04.083Z,1020.28
2017-04-21T09:34:40.278Z,1020.24
2017-04-21T09:37:25.618Z,1020.31
2017-04-21T09:39:02.966Z,1020.26
2017-04-21T09:40:14.890Z,1020.28
2017-04-21T09:41:27.429Z,1020.28
2017-04-21T09:42:39.643Z,1020.21
2017-04-21T09:45:05.921Z,1020.23
2017-04-21T09:46:18.483Z,1020.18
2017-04-21T09:47:30.738Z,1020.15
2017-04-21T09:48:42.961Z,1020.11
2017-04-21T09:49:55.523Z,1020.19
2017-04-21T09:51:07.772Z,1020.08
2017-04-21T09:58:41.188Z,1020.11
2017-04-21T10:09:22.331Z,1019.9
2017-04-21T10:10:34.889Z,1019.86
2017-04-21T10:11:47.444Z,1019.84
2017-04-21T10:12:59.999Z,1019.93
2017-04-21T10:14:12.520Z,1019.86
2017-04-21T10:15:25.017Z,1019.83
2017-04-21T10:16:37.560Z,1019.85
2017-04-21T10:17:49.786Z,1019.87
2017-04-21T10:19:02.347Z,1019.84
2017-04-21T10:20:14.930Z,1019.75
2017-04-21T10:21:27.169Z,1019.76
2017-04-21T10:22:39.710Z,1019.74
2017-04-21T10:23:51.976Z,1019.72
2017-04-21T10:25:03.907Z,1019.78
2017-04-21T10:26:16.473Z,1019.69
2017-04-21T10:27:28.802Z,1019.75
2017-04-21T10:28:41.569Z,1019.74
2017-04-21T10:29:54.133Z,1019.72
2017-04-21T10:31:06.657Z,1019.77
2017-04-21T10:32:19.202Z,1019.7
2017-04-21T10:33:31.753Z,1019.74
2017-04-21T10:34:43.996Z,1019.75
2017-04-21T10:35:56.521Z,1019.65
2017-04-21T10:37:09.069Z,1019.62
2017-04-21T10:38:21.605Z,1019.62
2017-04-21T10:39:34.160Z,1019.63
2017-04-21T10:40:46.386Z,1019.59
2017-04-21T10:41:58.949Z,1019.55
2017-04-21T10:43:11.616Z,1019.53
2017-04-21T10:44:24.517Z,1019.5
2017-04-21T10:45:37.041Z,1019.5
2017-04-21T10:46:49.587Z,1019.43
2017-04-21T10:48:02.121Z,1019.47
2017-04-21T10:49:14.355Z,1019.35
2017-04-21T10:50:26.897Z,1019.39
2017-04-21T10:51:39.437Z,1019.36
2017-04-21T10:52:51.666Z,1019.32
2017-04-21T10:54:04.184Z,1019.3
2017-04-21T10:55:16.735Z,1019.26
2017-04-21T10:56:29.295Z,1019.15
2017-04-21T10:57:41.817Z,1019.18
2017-04-21T10:58:54.710Z,1019.23
2017-04-21T11:00:06.655Z,1019.15
2017-04-21T11:01:18.909Z,1019.18
2017-04-21T11:02:31.462Z,1019.15
2017-04-21T11:03:43.994Z,1019.18
2017-04-21T11:04:56.526Z,1019.15
2017-04-21T11:06:08.746Z,1019.12
2017-04-21T11:07:20.984Z,1019.11
2017-04-21T11:08:33.235Z,1019.09
2017-04-21T11:09:45.757Z,1019.1
2017-04-21T11:10:58.283Z,1019.11
2017-04-21T11:12:10.200Z,1019.07
2017-04-21T11:13:22.464Z,1019.14
2017-04-21T11:14:35.019Z,1019
2017-04-21T11:15:47.562Z,1019.08
2017-04-21T11:17:00.185Z,1019.05
2017-04-21T11:18:12.756Z,1019.05
2017-04-21T11:19:25.007Z,1019.02
2017-04-21T11:20:37.544Z,1019.04
2017-04-21T11:21:49.764Z,1018.98
2017-04-21T11:23:02.290Z,1019
2017-04-21T11:24:14.823Z,1018.95
2017-04-21T11:25:27.330Z,1018.96
2017-04-21T11:26:39.844Z,1018.88
2017-04-21T11:27:52.377Z,1018.94
2017-04-21T11:29:04.939Z,1018.86
2017-04-21T11:30:17.513Z,1018.95
2017-04-21T11:31:30.060Z,1018.96
2017-04-21T11:32:42.457Z,1018.93
2017-04-21T11:33:55.273Z,1018.96
2017-04-21T11:35:07.824Z,1018.86
2017-04-21T11:36:20.371Z,1018.86
2017-04-21T11:37:32.912Z,1018.88
2017-04-21T11:38:45.467Z,1018.87
2017-04-21T11:39:57.724Z,1018.96
2017-04-21T11:41:10.278Z,1018.92
2017-04-21T11:42:22.799Z,1018.87
2017-04-21T11:43:35.023Z,1018.82
2017-04-21T11:44:47.543Z,1018.86
2017-04-21T11:46:00.116Z,1018.93
2017-04-21T11:47:12.646Z,1018.85
2017-04-21T11:48:25.180Z,1018.83
2017-04-21T11:49:37.725Z,1018.88
2017-04-21T11:50:50.287Z,1018.75
2017-04-21T11:52:03.018Z,1018.72
2017-04-21T11:53:15.235Z,1018.6
2017-04-21T11:54:27.775Z,1018.64
2017-04-21T11:55:40.281Z,1018.71
2017-04-21T11:56:52.521Z,1018.73
2017-04-21T11:58:05.088Z,1018.65
2017-04-21T11:59:17.620Z,1018.6
2017-04-21T12:00:30.180Z,1018.54
2017-04-21T12:01:42.729Z,1018.58
2017-04-21T12:02:55.257Z,1018.52
2017-04-21T12:04:07.828Z,1018.52
2017-04-21T12:05:20.368Z,1018.54
2017-04-21T12:06:32.888Z,1018.48
2017-04-21T12:07:45.534Z,1018.48
2017-04-21T12:08:57.902Z,1018.44
2017-04-21T12:10:10.432Z,1018.44
2017-04-21T12:11:22.968Z,1018.38
2017-04-21T12:12:35.514Z,1018.33
2017-04-21T12:13:48.064Z,1018.23
2017-04-21T12:15:00.639Z,1018.27
2017-04-21T12:16:12.873Z,1018.27
2017-04-21T12:17:25.381Z,1018.24
2017-04-21T12:18:37.626Z,1018.24
2017-04-21T12:19:49.860Z,1018.22
2017-04-21T12:21:02.110Z,1018.2
2017-04-21T12:22:14.660Z,1018.13
2017-04-21T12:23:27.190Z,1018.17
2017-04-21T12:24:39.731Z,1018.07
2017-04-21T12:25:51.950Z,1018.15
2017-04-21T12:27:04.473Z,1018.05
2017-04-21T12:28:16.734Z,1018.09
2017-04-21T12:29:28.938Z,1017.96
2017-04-21T12:30:41.461Z,1017.97
2017-04-21T12:31:54.031Z,1017.97
2017-04-21T12:33:05.970Z,1017.98
2017-04-21T12:34:18.527Z,1017.97
2017-04-21T12:35:31.047Z,1017.91
2017-04-21T12:36:43.269Z,1017.93
2017-04-21T12:37:55.799Z,1017.9
2017-04-21T12:39:08.304Z,1017.91
2017-04-21T12:40:20.695Z,1017.87
2017-04-21T12:41:33.194Z,1017.85
2017-04-21T12:42:45.721Z,1017.88
2017-04-21T12:43:57.964Z,1017.78
2017-04-21T12:45:10.540Z,1017.8
2017-04-21T12:46:22.795Z,1017.75
2017-04-21T12:47:35.328Z,1017.83
2017-04-21T12:48:47.879Z,1017.69
2017-04-21T12:49:59.824Z,1017.75
2017-04-21T12:51:12.379Z,1017.88
2017-04-21T12:52:24.329Z,1017.74
2017-04-21T12:53:36.579Z,1017.69
2017-04-21T12:54:49.118Z,1017.63
2017-04-21T12:56:01.367Z,1017.67
2017-04-21T12:57:13.583Z,1017.72
2017-04-21T12:58:26.191Z,1017.71
2017-04-21T12:59:38.454Z,1017.62
2017-04-21T13:00:51.207Z,1017.65
2017-04-21T13:02:03.493Z,1017.56
2017-04-21T13:03:15.697Z,1017.6
2017-04-21T13:04:27.946Z,1017.59
2017-04-21T13:05:40.465Z,1017.53
2017-04-21T13:06:52.692Z,1017.48
2017-04-21T13:08:05.250Z,1017.36
2017-04-21T13:09:17.526Z,1017.42
2017-04-21T13:10:30.029Z,1017.4
2017-04-21T13:11:42.572Z,1017.4
2017-04-21T13:12:55.089Z,1017.4
2017-04-21T13:14:07.639Z,1017.36
2017-04-21T13:15:20.234Z,1017.41
2017-04-21T13:16:32.480Z,1017.24
2017-04-21T13:17:44.827Z,1017.33
2017-04-21T13:18:57.369Z,1017.29
2017-04-21T13:20:09.909Z,1017.21
2017-04-21T13:21:22.468Z,1017.18
2017-04-21T13:22:35.023Z,1017.17
2017-04-21T13:23:47.261Z,1017.17
2017-04-21T13:24:59.822Z,1017.11
2017-04-21T13:26:12.071Z,1017.12
2017-04-21T13:27:24.618Z,1017.11
2017-04-21T13:28:37.135Z,1017.18
2017-04-21T13:29:49.709Z,1017.2
2017-04-21T13:31:02.252Z,1017.14
2017-04-21T13:32:14.475Z,1017.1
2017-04-21T13:33:27.048Z,1017.01
2017-04-21T13:34:39.612Z,1016.97
2017-04-21T13:35:52.141Z,1016.91
2017-04-21T13:37:04.402Z,1016.95
2017-04-21T13:38:17.369Z,1016.89
2017-04-21T13:39:29.598Z,1016.84
2017-04-21T13:40:42.126Z,1016.87
2017-04-21T13:41:54.362Z,1016.89
2017-04-21T13:43:06.893Z,1016.86
2017-04-21T13:44:19.408Z,1016.75
2017-04-21T13:45:31.628Z,1016.82
2017-04-21T13:46:43.880Z,1016.82
2017-04-21T13:47:56.420Z,1016.81
2017-04-21T13:49:08.663Z,1016.78
2017-04-21T13:50:21.238Z,1016.88
2017-04-21T13:51:33.462Z,1016.82
2017-04-21T13:52:46.003Z,1016.8
2017-04-21T13:53:58.555Z,1016.81
2017-04-21T13:55:11.096Z,1016.77
2017-04-21T13:56:23.745Z,1016.68
2017-04-21T13:57:36.116Z,1016.61
2017-04-21T13:58:48.262Z,1016.5
2017-04-21T14:00:00.525Z,1016.58
2017-04-21T14:01:13.067Z,1016.46
2017-04-21T14:02:24.700Z,1016.41
2017-04-21T14:03:37.247Z,1016.42
2017-04-21T14:04:49.838Z,1016.43
2017-04-21T14:06:02.408Z,1016.42
2017-04-21T14:07:14.950Z,1016.34
2017-04-21T14:08:27.519Z,1016.38
2017-04-21T14:09:39.746Z,1016.33
2017-04-21T14:10:52.292Z,1016.38
2017-04-21T14:12:04.563Z,1016.4
2017-04-21T14:13:17.102Z,1016.38
2017-04-21T14:14:29.639Z,1016.38
2017-04-21T14:15:42.151Z,1016.39
2017-04-21T14:16:54.697Z,1016.36
2017-04-21T14:18:07.219Z,1016.37
2017-04-21T14:19:19.754Z,1016.32
2017-04-21T14:20:32.002Z,1016.31
2017-04-21T14:21:44.361Z,1016.28
2017-04-21T14:22:56.855Z,1016.31
2017-04-21T14:24:09.428Z,1016.25
2017-04-21T14:25:21.969Z,1016.23
2017-04-21T14:26:34.493Z,1016.13
2017-04-21T14:27:46.088Z,1016.17
2017-04-21T14:28:58.648Z,1016.1
2017-04-21T14:30:11.193Z,1016.17
2017-04-21T14:31:23.422Z,1016.1
2017-04-21T14:32:35.339Z,1016.09
2017-04-21T14:33:47.883Z,1016.09
2017-04-21T14:35:00.388Z,1016.06
2017-04-21T14:36:12.610Z,1015.95
2017-04-21T14:37:25.302Z,1015.96
2017-04-21T14:38:37.550Z,1015.92
2017-04-21T14:39:49.573Z,1016
2017-04-21T14:41:02.095Z,1015.95
2017-04-21T14:42:14.640Z,1015.89
2017-04-21T14:43:26.859Z,1015.86
2017-04-21T14:44:39.131Z,1015.77
2017-04-21T14:45:51.375Z,1015.83
2017-04-21T14:47:03.912Z,1015.77
2017-04-21T14:48:16.432Z,1015.75
2017-04-21T14:49:28.986Z,1015.62
2017-04-21T14:50:41.532Z,1015.58
2017-04-21T14:51:54.053Z,1015.54
2017-04-21T14:53:06.578Z,1015.58
2017-04-21T14:54:18.537Z,1015.58
2017-04-21T14:55:30.741Z,1015.56
2017-04-21T14:56:43.261Z,1015.47
2017-04-21T14:57:55.825Z,1015.45
2017-04-21T14:59:08.350Z,1015.38
2017-04-21T15:00:20.617Z,1015.41
2017-04-21T15:01:33.270Z,1015.42
2017-04-21T15:02:45.808Z,1015.42
2017-04-21T15:03:58.027Z,1015.35